Time;durP1;ratioP1;P1;durP2;ratioP2;P2;SDS_P1;SDS_P2;PMS_P1;PMS_P2;Temp;Humidity;BMP_temperature;BMP_pressure;BME280_temperature;BME280_humidity;BME280_pressure;Samples;Min_cycle;Max_cycle;Signal;HPM_P1;HPM_P2
2021/05/05 00:00:13;;;;;;;9.13;3.37;;;;;;;17.61;54.12;94534.16;5093236;28;20838;-75
2021/05/05 00:02:41;;;;;;;4.97;3.50;;;;;;;17.67;54.09;94533.50;5093244;28;20567;-75
2021/05/05 00:05:09;;;;;;;4.53;4.00;;;;;;;17.69;53.95;94538.63;5092952;28;20487;-76
2021/05/05 00:07:35;;;;;;;3.60;3.30;;;;;;;17.69;53.61;94536.78;5057374;28;20447;-76
2021/05/05 00:10:03;;;;;;;4.10;3.70;;;;;;;17.65;53.73;94535.47;5040430;28;20849;-75
2021/05/05 00:12:29;;;;;;;6.93;3.30;;;;;;;17.61;54.04;94526.22;5093112;28;20498;-75
2021/05/05 00:14:55;;;;;;;3.93;3.53;;;;;;;17.60;54.51;94533.34;5093148;28;20473;-75
2021/05/05 00:17:21;;;;;;;12.80;4.00;;;;;;;17.52;54.28;94532.63;5092942;28;20451;-76
2021/05/05 00:19:48;;;;;;;3.50;3.30;;;;;;;17.39;55.11;94532.41;5093048;28;20447;-75
2021/05/05 00:22:15;;;;;;;3.87;3.47;;;;;;;17.22;55.12;94519.28;5092629;28;20792;-75
2021/05/05 00:24:42;;;;;;;3.77;3.47;;;;;;;17.23;55.74;94520.94;5092600;28;20486;-75
2021/05/05 00:27:09;;;;;;;3.93;3.60;;;;;;;17.04;56.69;94510.81;5092694;28;20448;-75
2021/05/05 00:29:35;;;;;;;10.03;4.00;;;;;;;16.94;56.52;94503.13;5056974;28;20439;-76
2021/05/05 00:32:01;;;;;;;5.00;4.53;;;;;;;16.86;56.94;94507.69;5096707;28;20450;-76
2021/05/05 00:34:28;;;;;;;10.87;4.70;;;;;;;16.89;57.37;94508.16;5096784;28;20446;-75
2021/05/05 00:36:54;;;;;;;4.63;4.20;;;;;;;16.90;57.31;94501.84;5096443;28;20452;-75
2021/05/05 00:39:20;;;;;;;5.77;3.70;;;;;;;16.94;57.21;94499.66;5096789;28;20528;-75
2021/05/05 00:41:47;;;;;;;9.00;4.23;;;;;;;16.95;57.79;94501.31;5096218;28;20452;-75
2021/05/05 00:44:16;;;;;;;5.13;4.27;;;;;;;16.84;57.70;94497.25;5096324;28;20498;-75
2021/05/05 00:46:42;;;;;;;4.73;4.33;;;;;;;16.88;57.99;94497.72;5096286;28;20848;-75
2021/05/05 00:49:08;;;;;;;6.10;4.40;;;;;;;16.84;57.59;94494.63;5096323;28;20440;-75
2021/05/05 00:51:35;;;;;;;4.40;3.77;;;;;;;16.88;58.09;94487.94;5096110;28;20453;-75
2021/05/05 00:54:01;;;;;;;5.53;3.50;;;;;;;16.92;57.69;94485.75;5096392;28;20831;-75
2021/05/05 00:56:27;;;;;;;4.47;4.07;;;;;;;16.96;58.33;94487.88;5096278;28;20465;-75
2021/05/05 00:58:54;;;;;;;4.53;4.13;;;;;;;16.90;58.03;94488.59;5096332;28;20450;-75
2021/05/05 01:01:21;;;;;;;4.70;4.23;;;;;;;16.94;58.12;94481.09;5095892;28;20453;-76
2021/05/05 01:03:47;;;;;;;6.40;4.20;;;;;;;16.98;57.78;94487.69;5076961;28;20482;-75
2021/05/05 01:06:14;;;;;;;4.07;3.67;;;;;;;17.07;57.89;94488.47;5095929;28;20445;-75
2021/05/05 01:08:42;;;;;;;4.37;3.97;;;;;;;17.13;58.02;94482.44;5095792;28;20448;-75
2021/05/05 01:11:08;;;;;;;4.40;4.00;;;;;;;17.02;57.99;94473.06;5095868;28;20818;-75
2021/05/05 01:13:35;;;;;;;5.10;3.63;;;;;;;17.00;58.57;94478.56;5095772;28;20458;-76
2021/05/05 01:16:01;;;;;;;5.40;4.23;;;;;;;16.97;58.51;94468.31;5095948;28;20458;-75
2021/05/05 01:18:28;;;;;;;4.63;3.87;;;;;;;16.87;59.03;94473.06;5095801;28;20451;-76
2021/05/05 01:20:57;;;;;;;6.20;4.10;;;;;;;16.85;59.25;94468.94;5095907;28;20934;-75
2021/05/05 01:23:24;;;;;;;19.47;4.80;;;;;;;16.70;60.29;94467.03;5095725;28;20913;-75
2021/05/05 01:25:50;;;;;;;4.50;4.10;;;;;;;16.64;60.89;94459.78;5095988;28;20446;-76
2021/05/05 01:28:17;;;;;;;7.07;3.87;;;;;;;16.52;60.89;94453.25;5096134;28;20450;-76
2021/05/05 01:30:44;;;;;;;6.13;5.00;;;;;;;16.34;62.33;94455.38;5095408;28;20443;-75
2021/05/05 01:33:10;;;;;;;4.83;4.27;;;;;;;16.30;62.90;94457.53;5095766;28;20806;-75
2021/05/05 01:35:37;;;;;;;5.40;4.87;;;;;;;16.36;62.89;94453.38;5095493;28;20455;-75
2021/05/05 01:38:04;;;;;;;8.67;5.27;;;;;;;16.23;63.15;94455.78;5095417;28;20476;-75
2021/05/05 01:40:32;;;;;;;5.03;4.63;;;;;;;16.34;62.69;94456.19;5095267;28;20502;-75
2021/05/05 01:43:02;;;;;;;5.53;4.60;;;;;;;16.31;62.99;94445.13;5095428;28;20489;-76
2021/05/05 01:45:28;;;;;;;10.40;5.40;;;;;;;16.40;62.47;94449.38;5095454;28;20483;-75
2021/05/05 01:47:55;;;;;;;6.40;5.00;;;;;;;16.40;62.58;94452.00;5095601;28;20848;-75
2021/05/05 01:50:22;;;;;;;5.10;4.60;;;;;;;16.45;63.25;94447.00;5094864;28;20514;-75
2021/05/05 01:52:48;;;;;;;6.00;4.27;;;;;;;16.48;62.52;94448.47;5059423;28;20444;-75
2021/05/05 01:55:16;;;;;;;5.63;4.23;;;;;;;16.56;62.72;94451.09;5095206;28;20449;-75
2021/05/05 01:57:43;;;;;;;5.50;4.90;;;;;;;16.46;62.74;94455.78;5095242;28;20437;-75
2021/05/05 02:00:15;;;;;;;8.80;5.47;;;;;;;16.47;62.50;94445.00;5095221;28;20832;-75
2021/05/05 02:02:42;;;;;;;8.70;4.37;;;;;;;16.51;62.68;94446.31;5094795;28;20932;-75
2021/05/05 02:05:09;;;;;;;6.17;4.60;;;;;;;16.43;63.44;94447.19;5095174;28;20834;-75
2021/05/05 02:07:35;;;;;;;7.70;4.87;;;;;;;16.43;63.29;94441.88;5095183;28;20795;-75
2021/05/05 02:10:02;;;;;;;6.17;5.57;;;;;;;16.44;63.88;94450.66;5095076;28;20451;-75
2021/05/05 02:12:32;;;;;;;5.77;5.27;;;;;;;16.44;64.16;94455.94;5094820;28;20999;-75
2021/05/05 02:14:58;;;;;;;6.60;5.87;;;;;;;16.46;64.50;94451.31;5094760;28;20437;-75
2021/05/05 02:17:25;;;;;;;8.00;5.13;;;;;;;16.43;64.78;94449.00;5094529;28;20446;-75
2021/05/05 02:19:51;;;;;;;8.13;5.40;;;;;;;16.28;65.09;94445.50;5094735;28;20783;-75
2021/05/05 02:22:17;;;;;;;16.90;9.93;;;;;;;15.99;66.37;94441.69;5094363;28;20452;-75
2021/05/05 02:24:44;;;;;;;20.87;11.83;;;;;;;16.21;65.66;94444.56;5094627;28;20477;-75
2021/05/05 02:27:10;;;;;;;11.33;8.50;;;;;;;16.25;65.31;94445.84;5094455;28;20448;-75
2021/05/05 02:29:38;;;;;;;11.60;8.27;;;;;;;16.31;65.24;94432.72;5094262;28;20443;-76
2021/05/05 02:32:08;;;;;;;13.67;7.70;;;;;;;16.33;65.43;94422.78;5094337;28;20447;-74
2021/05/05 02:34:35;;;;;;;9.50;8.00;;;;;;;16.35;65.63;94425.25;5094105;28;20799;-75
2021/05/05 02:37:02;;;;;;;12.70;6.77;;;;;;;16.41;65.32;94413.94;5094310;28;20458;-75
2021/05/05 02:39:28;;;;;;;9.63;5.70;;;;;;;16.46;65.61;94432.75;5094423;28;20433;-75
2021/05/05 02:41:55;;;;;;;6.23;5.73;;;;;;;16.53;65.49;94423.13;5094794;28;20486;-75
2021/05/05 02:44:21;;;;;;;14.17;5.87;;;;;;;16.49;65.76;94427.13;5093966;28;20488;-75
2021/05/05 02:46:48;;;;;;;9.10;7.30;;;;;;;16.40;65.77;94421.06;5094355;28;20447;-75
2021/05/05 02:49:15;;;;;;;6.53;5.93;;;;;;;16.47;65.69;94430.94;5093922;28;20930;-75
2021/05/05 02:51:41;;;;;;;7.00;6.33;;;;;;;16.51;64.99;94434.91;5094036;28;20444;-75
2021/05/05 02:54:07;;;;;;;7.33;6.40;;;;;;;16.42;66.20;94423.53;5093986;28;20450;-75
2021/05/05 02:56:34;;;;;;;19.27;7.63;;;;;;;16.36;66.58;94411.00;5094136;28;20447;-75
2021/05/05 02:59:00;;;;;;;7.33;6.40;;;;;;;16.28;66.54;94403.94;5094100;28;20868;-75
2021/05/05 03:01:26;;;;;;;10.00;6.83;;;;;;;16.37;66.54;94399.41;5094017;28;20471;-75
2021/05/05 03:03:54;;;;;;;9.77;7.60;;;;;;;16.31;66.26;94408.88;5094084;28;20488;-75
2021/05/05 03:06:20;;;;;;;8.40;6.33;;;;;;;16.34;66.53;94403.22;5093791;28;20443;-75
2021/05/05 03:08:46;;;;;;;10.43;6.73;;;;;;;16.32;66.10;94413.19;5093668;28;20441;-75
2021/05/05 03:11:13;;;;;;;6.97;6.33;;;;;;;16.14;66.92;94414.47;5093684;28;20517;-75
2021/05/05 03:13:39;;;;;;;7.70;6.63;;;;;;;16.07;67.41;94403.75;5093393;28;20441;-75
2021/05/05 03:16:06;;;;;;;10.73;7.10;;;;;;;15.78;69.04;94402.59;5093965;28;20441;-75
2021/05/05 03:18:33;;;;;;;9.57;7.43;;;;;;;15.87;69.12;94406.00;5093503;28;20451;-75
2021/05/05 03:21:00;;;;;;;7.80;6.97;;;;;;;15.91;68.94;94398.59;5058049;28;20441;-75
2021/05/05 03:23:27;;;;;;;7.30;6.70;;;;;;;15.96;68.70;94398.88;5057681;28;20443;-75
2021/05/05 03:25:53;;;;;;;12.30;6.37;;;;;;;15.80;68.62;94405.06;5093353;28;20460;-75
2021/05/05 03:28:19;;;;;;;7.90;7.10;;;;;;;15.76;69.58;94417.00;5092932;28;20797;-75
2021/05/05 03:30:46;;;;;;;10.03;7.20;;;;;;;15.68;70.17;94406.47;5092728;28;20503;-75
2021/05/05 03:33:12;;;;;;;13.23;9.23;;;;;;;15.61;70.69;94405.50;5092931;28;20501;-75
2021/05/05 03:35:39;;;;;;;16.10;9.30;;;;;;;15.57;70.89;94414.72;5093626;28;20569;-75
2021/05/05 03:38:06;;;;;;;14.30;9.63;;;;;;;15.46;71.69;94419.41;5093461;28;20469;-76
2021/05/05 03:40:33;;;;;;;14.63;9.73;;;;;;;15.56;71.36;94421.84;5093700;28;20447;-76
2021/05/05 03:42:59;;;;;;;13.10;9.83;;;;;;;15.64;71.25;94435.09;5093110;28;20476;-75
2021/05/05 03:45:25;;;;;;;10.80;9.63;;;;;;;15.70;70.90;94423.81;5041058;28;20490;-75
2021/05/05 03:47:52;;;;;;;12.03;10.43;;;;;;;15.60;71.51;94417.06;5093535;28;20849;-75
2021/05/05 03:50:21;;;;;;;12.60;9.73;;;;;;;15.55;71.57;94441.34;5093057;28;20439;-75
2021/05/05 03:52:47;;;;;;;19.73;11.00;;;;;;;15.66;71.37;94442.84;5057531;28;20912;-75
2021/05/05 03:55:15;;;;;;;28.70;11.33;;;;;;;15.67;71.30;94442.69;5093124;28;20499;-75
2021/05/05 03:57:42;;;;;;;16.77;10.93;;;;;;;15.73;71.01;94436.69;5093485;28;20478;-75
2021/05/05 04:00:09;;;;;;;18.60;10.73;;;;;;;15.85;70.69;94446.88;5093109;28;20535;-75
2021/05/05 04:02:36;;;;;;;13.50;10.20;;;;;;;15.90;71.44;94437.44;5093006;28;20447;-75
2021/05/05 04:05:03;;;;;;;12.20;9.30;;;;;;;15.94;71.33;94430.81;5093697;28;20494;-75
2021/05/05 04:07:29;;;;;;;12.97;9.90;;;;;;;16.02;70.64;94443.97;5061440;28;20451;-75
2021/05/05 04:09:56;;;;;;;14.17;10.20;;;;;;;16.10;70.60;94443.09;5096943;28;20446;-75
2021/05/05 04:12:24;;;;;;;11.23;10.03;;;;;;;16.16;70.50;94444.22;5097254;28;20530;-75
2021/05/05 04:14:50;;;;;;;15.07;10.20;;;;;;;16.28;70.07;94446.31;5097151;28;20502;-76
2021/05/05 04:17:17;;;;;;;12.50;9.70;;;;;;;16.34;69.84;94442.94;5096976;28;20443;-75
2021/05/05 04:19:43;;;;;;;12.93;11.20;;;;;;;16.35;69.60;94447.25;5097492;28;20918;-75
2021/05/05 04:22:09;;;;;;;11.13;9.63;;;;;;;16.21;70.15;94433.97;5096751;28;20454;-75
2021/05/05 04:24:36;;;;;;;14.00;10.77;;;;;;;16.24;70.30;94457.44;5096998;28;20487;-76
2021/05/05 04:27:02;;;;;;;12.40;10.33;;;;;;;16.24;69.62;94445.03;5096755;28;21008;-75
2021/05/05 04:29:29;;;;;;;13.20;9.43;;;;;;;16.28;68.84;94445.50;5096964;28;20456;-75
2021/05/05 04:31:57;;;;;;;15.20;9.77;;;;;;;16.36;68.55;94448.06;5097095;28;20446;-75
2021/05/05 04:34:25;;;;;;;17.67;9.80;;;;;;;16.42;68.66;94432.28;5096790;28;20440;-75
2021/05/05 04:36:52;;;;;;;13.57;9.40;;;;;;;16.46;69.81;94453.94;5096780;28;20436;-75
2021/05/05 04:39:18;;;;;;;13.03;10.23;;;;;;;16.50;68.93;94467.69;5096600;28;20443;-76
2021/05/05 04:41:44;;;;;;;13.20;11.43;;;;;;;16.51;69.19;94459.56;5096372;28;20514;-75
2021/05/05 04:44:11;;;;;;;12.80;10.40;;;;;;;16.57;69.59;94447.44;5096169;28;20493;-75
2021/05/05 04:46:38;;;;;;;15.13;10.30;;;;;;;16.57;69.74;94440.31;5060979;28;20447;-75
2021/05/05 04:49:04;;;;;;;11.77;10.40;;;;;;;16.65;68.62;94453.47;5077432;28;20500;-75
2021/05/05 04:51:31;;;;;;;12.97;9.43;;;;;;;16.71;68.26;94460.75;5096383;28;20444;-75
2021/05/05 04:53:57;;;;;;;15.00;10.43;;;;;;;16.75;67.86;94452.44;5096674;28;20457;-75
2021/05/05 04:56:23;;;;;;;12.90;10.20;;;;;;;16.84;68.48;94460.16;5096643;28;20457;-75
2021/05/05 04:58:50;;;;;;;14.90;9.77;;;;;;;16.91;68.74;94466.38;5096557;28;20447;-75
2021/05/05 05:01:16;;;;;;;12.73;8.50;;;;;;;16.92;67.63;94465.38;5095948;28;20448;-75
2021/05/05 05:03:43;;;;;;;13.07;10.03;;;;;;;16.87;67.34;94461.63;5095934;28;20930;-75
2021/05/05 05:06:10;;;;;;;11.33;10.20;;;;;;;16.82;67.75;94464.00;5095998;28;20972;-75
2021/05/05 05:08:36;;;;;;;13.70;10.40;;;;;;;16.85;67.34;94471.59;5096138;28;20448;-75
2021/05/05 05:11:03;;;;;;;13.97;10.30;;;;;;;16.89;67.89;94471.03;5095877;28;20442;-75
2021/05/05 05:13:29;;;;;;;13.57;9.33;;;;;;;16.95;67.55;94474.81;5095987;28;20442;-75
2021/05/05 05:15:55;;;;;;;10.37;9.23;;;;;;;17.01;67.27;94461.66;5095306;28;20437;-75
2021/05/05 05:18:21;;;;;;;11.73;9.77;;;;;;;17.06;66.26;94461.13;5096229;28;20445;-75
2021/05/05 05:20:49;;;;;;;10.33;8.93;;;;;;;17.01;66.58;94466.13;5095871;28;20457;-75
2021/05/05 05:23:15;;;;;;;10.37;9.17;;;;;;;17.08;67.21;94464.44;5096021;28;20447;-75
2021/05/05 05:25:41;;;;;;;15.03;11.37;;;;;;;17.08;66.25;94456.47;5095585;28;20813;-75
2021/05/05 05:28:08;;;;;;;16.10;11.30;;;;;;;17.09;66.35;94457.28;5095425;28;20450;-75
2021/05/05 05:30:34;;;;;;;11.97;9.23;;;;;;;17.07;66.77;94452.19;5095702;28;20775;-75
2021/05/05 05:33:00;;;;;;;12.30;9.73;;;;;;;17.12;66.26;94454.28;5076787;28;20464;-75
2021/05/05 05:35:27;;;;;;;12.57;11.23;;;;;;;17.19;65.54;94445.41;5095618;28;20454;-75
2021/05/05 05:37:54;;;;;;;12.80;9.87;;;;;;;17.12;65.96;94451.63;5095517;28;20443;-75
2021/05/05 05:40:20;;;;;;;13.83;11.40;;;;;;;17.07;66.12;94454.81;5095849;28;21439;-75
2021/05/05 05:42:47;;;;;;;13.40;10.57;;;;;;;17.05;66.42;94443.56;5095223;28;20449;-75
2021/05/05 05:45:15;;;;;;;11.83;10.53;;;;;;;17.06;66.35;94445.22;5095397;28;20485;-75
2021/05/05 05:47:42;;;;;;;17.47;11.57;;;;;;;17.01;66.97;94453.69;5095613;28;20490;-76
2021/05/05 05:50:10;;;;;;;14.10;11.40;;;;;;;16.95;67.71;94458.91;5095081;28;20459;-76
2021/05/05 05:52:36;;;;;;;13.40;11.27;;;;;;;16.86;68.02;94460.81;5059744;28;20430;-75
2021/05/05 05:55:05;;;;;;;15.97;10.93;;;;;;;16.88;67.21;94469.41;5095119;28;20445;-75
2021/05/05 05:57:32;;;;;;;21.50;13.27;;;;;;;16.92;67.50;94464.56;5095030;28;20971;-75
2021/05/05 05:59:59;;;;;;;15.23;11.27;;;;;;;16.83;68.26;94465.66;5075860;28;20440;-75
2021/05/05 06:02:26;;;;;;;16.73;11.70;;;;;;;16.82;68.28;94479.91;5095274;28;20455;-76
2021/05/05 06:04:52;;;;;;;20.00;11.13;;;;;;;16.92;68.31;94480.47;5094804;28;20482;-75
2021/05/05 06:07:19;;;;;;;14.67;11.20;;;;;;;17.01;67.76;94484.69;5095221;28;20792;-76
2021/05/05 06:09:45;;;;;;;20.67;9.83;;;;;;;17.05;67.33;94475.38;5094877;28;20453;-76
2021/05/05 06:12:12;;;;;;;14.33;10.20;;;;;;;17.14;67.72;94487.56;5095013;28;20445;-75
2021/05/05 06:14:39;;;;;;;19.17;11.20;;;;;;;17.19;67.22;94479.88;5094652;28;20445;-75
2021/05/05 06:17:05;;;;;;;11.63;10.47;;;;;;;17.25;67.00;94481.81;5094371;28;20449;-75
2021/05/05 06:19:31;;;;;;;11.53;10.23;;;;;;;17.34;66.84;94480.72;5094651;28;20448;-75
2021/05/05 06:21:58;;;;;;;15.57;9.87;;;;;;;17.37;66.82;94460.16;5094672;28;20479;-75
2021/05/05 06:24:24;;;;;;;11.17;9.97;;;;;;;17.78;67.32;94460.53;5094357;28;20487;-75
2021/05/05 06:26:50;;;;;;;9.07;8.00;;;;;;;18.52;64.29;94469.19;5094484;28;20443;-75
2021/05/05 06:29:18;;;;;;;9.80;7.40;;;;;;;19.41;59.52;94475.72;5093854;28;20436;-75
2021/05/05 06:31:44;;;;;;;9.93;8.20;;;;;;;20.10;56.41;94470.38;5094387;28;20445;-75
2021/05/05 06:34:11;;;;;;;8.90;7.80;;;;;;;20.62;54.74;94471.63;5094211;28;20453;-76
2021/05/05 06:36:37;;;;;;;10.40;7.53;;;;;;;21.18;53.48;94465.13;5094581;28;20859;-76
2021/05/05 06:39:07;;;;;;;9.07;8.13;;;;;;;21.80;51.26;94470.00;5094674;28;20451;-76
2021/05/05 06:41:34;;;;;;;13.90;8.10;;;;;;;22.50;49.09;94467.50;5094185;28;20493;-78
2021/05/05 06:44:00;;;;;;;8.53;7.17;;;;;;;23.18;47.85;94465.06;5094689;28;20468;-76
2021/05/05 06:46:30;;;;;;;11.63;8.40;;;;;;;23.53;44.50;94460.00;5094857;28;20841;-75
2021/05/05 06:48:56;;;;;;;9.73;8.40;;;;;;;23.64;45.41;94453.13;5094644;28;20477;-76
2021/05/05 06:51:23;;;;;;;8.73;7.83;;;;;;;23.97;44.13;94452.78;5075026;28;20443;-76
2021/05/05 06:53:49;;;;;;;12.47;8.73;;;;;;;23.92;43.55;94449.97;5094126;28;20455;-76
2021/05/05 06:56:15;;;;;;;10.73;7.27;;;;;;;24.08;43.08;94454.75;5093764;28;20792;-76
2021/05/05 06:58:42;;;;;;;11.17;7.60;;;;;;;24.28;43.29;94443.78;5094027;28;20450;-76
2021/05/05 07:01:08;;;;;;;13.53;8.00;;;;;;;24.59;43.54;94434.75;5093940;28;20464;-76
2021/05/05 07:03:35;;;;;;;8.53;7.67;;;;;;;24.73;41.90;94433.50;5093409;28;20452;-76
2021/05/05 07:06:02;;;;;;;10.10;6.70;;;;;;;24.98;42.07;94430.66;5093918;28;20489;-76
2021/05/05 07:08:29;;;;;;;7.87;6.80;;;;;;;24.98;41.37;94430.66;5093970;28;20450;-76
2021/05/05 07:10:55;;;;;;;11.10;7.70;;;;;;;24.73;41.53;94436.19;5074676;28;20445;-77
2021/05/05 07:13:22;;;;;;;10.07;7.67;;;;;;;24.66;41.64;94430.09;5093533;28;20445;-77
2021/05/05 07:15:48;;;;;;;9.60;7.20;;;;;;;24.57;41.25;94434.13;5058030;28;20445;-76
2021/05/05 07:18:14;;;;;;;7.60;6.90;;;;;;;24.52;42.11;94426.75;5074694;28;20500;-76
2021/05/05 07:20:42;;;;;;;13.03;6.10;;;;;;;24.61;42.25;94420.06;5093585;28;20797;-76
2021/05/05 07:23:08;;;;;;;10.03;6.40;;;;;;;24.69;43.21;94419.72;5093531;28;20479;-76
2021/05/05 07:25:34;;;;;;;10.00;7.70;;;;;;;24.59;43.06;94422.16;5093668;28;20814;-76
2021/05/05 07:28:01;;;;;;;8.17;6.67;;;;;;;24.24;43.32;94432.66;5093323;28;20516;-77
2021/05/05 07:30:27;;;;;;;5.87;5.37;;;;;;;24.39;43.07;94427.78;5093216;28;20448;-76
2021/05/05 07:32:54;;;;;;;6.87;6.27;;;;;;;24.49;43.70;94426.41;5093339;28;20445;-76
2021/05/05 07:35:22;;;;;;;7.43;6.80;;;;;;;24.05;43.77;94426.50;5057582;28;20433;-76
2021/05/05 07:44:09;;;;;;;7.40;5.60;;;;;;;23.74;45.16;94405.22;5111073;28;20464;-75
2021/05/05 07:46:28;;;;;;;7.17;6.00;;;;;;;23.41;45.91;94409.00;5110827;28;20578;-75
2021/05/05 07:48:56;;;;;;;11.40;6.50;;;;;;;22.90;48.18;94413.81;5111097;28;20452;-75
2021/05/05 07:51:23;;;;;;;16.50;6.67;;;;;;;22.44;48.20;94404.19;5041677;28;20521;-75
2021/05/05 07:53:52;;;;;;;12.23;6.00;;;;;;;22.06;48.72;94413.03;5111492;28;20472;-75
2021/05/05 07:56:19;;;;;;;5.67;5.27;;;;;;;21.84;49.74;94412.44;5111030;28;20463;-77
2021/05/05 07:58:46;;;;;;;8.40;6.27;;;;;;;21.33;50.48;94413.19;5091726;28;20474;-77
2021/05/05 08:01:16;;;;;;;13.43;6.10;;;;;;;20.90;52.59;94418.13;5108753;28;20443;-74
2021/05/05 08:03:42;;;;;;;14.80;7.10;;;;;;;20.32;54.15;94419.63;5110906;28;20457;-77
2021/05/05 08:06:08;;;;;;;10.70;6.90;;;;;;;20.32;54.88;94425.78;5110470;28;20456;-77
2021/05/05 08:08:35;;;;;;;8.80;6.47;;;;;;;20.43;54.59;94419.06;5110542;28;20443;-77
2021/05/05 08:11:02;;;;;;;7.73;5.93;;;;;;;20.75;54.22;94419.31;5110371;28;20482;-74
2021/05/05 08:13:29;;;;;;;10.73;7.20;;;;;;;21.07;53.65;94421.19;5074543;28;20441;-77
2021/05/05 08:15:56;;;;;;;8.07;6.60;;;;;;;21.61;52.34;94404.91;5110552;28;20446;-74
2021/05/05 08:18:23;;;;;;;5.83;5.43;;;;;;;22.08;50.31;94405.59;5110364;28;20450;-75
2021/05/05 08:20:50;;;;;;;6.30;5.70;;;;;;;22.51;48.79;94410.31;5110059;28;20475;-75
2021/05/05 08:23:18;;;;;;;6.00;4.90;;;;;;;22.82;48.05;94396.94;5110020;28;20453;-75
2021/05/05 08:25:45;;;;;;;6.13;5.53;;;;;;;22.67;47.79;94407.13;5110131;28;20451;-74
2021/05/05 08:28:12;;;;;;;11.20;6.40;;;;;;;22.48;49.01;94408.06;5110075;28;20958;-75
2021/05/05 08:30:42;;;;;;;6.90;6.23;;;;;;;22.19;49.90;94409.44;5110585;28;20444;-75
2021/05/05 08:33:08;;;;;;;6.70;6.00;;;;;;;22.24;50.74;94401.59;5109860;28;20457;-75
2021/05/05 08:35:34;;;;;;;7.70;6.07;;;;;;;22.45;50.95;94400.47;5109973;28;20479;-75
2021/05/05 08:38:01;;;;;;;7.73;6.17;;;;;;;22.76;50.03;94389.78;5109828;28;20532;-76
2021/05/05 08:40:28;;;;;;;6.90;6.30;;;;;;;22.63;48.81;94391.72;5109996;28;20498;-75
2021/05/05 08:42:54;;;;;;;7.53;6.37;;;;;;;22.62;49.34;94390.09;5109496;28;20449;-75
2021/05/05 08:45:22;;;;;;;7.57;5.57;;;;;;;22.82;48.99;94380.91;5090719;28;20447;-76
2021/05/05 08:47:55;;;;;;;5.70;5.27;;;;;;;22.50;48.14;94395.28;5109798;28;20453;-76
2021/05/05 08:50:23;;;;;;;6.57;5.97;;;;;;;22.51;49.40;94399.59;5105864;28;20437;-75
2021/05/05 08:52:50;;;;;;;7.00;5.93;;;;;;;22.18;50.37;94387.25;5095664;28;20466;-75
2021/05/05 08:55:18;;;;;;;6.00;5.40;;;;;;;21.98;50.96;94378.50;5095245;28;20449;-75
2021/05/05 08:57:45;;;;;;;7.13;5.67;;;;;;;21.87;51.26;94381.81;5095448;28;20440;-75
2021/05/05 09:00:14;;;;;;;5.87;5.37;;;;;;;22.22;50.28;94380.44;5094897;28;20486;-76
2021/05/05 09:02:41;;;;;;;5.40;4.90;;;;;;;22.47;50.75;94382.34;5095367;28;20452;-76
2021/05/05 09:05:12;;;;;;;5.50;5.00;;;;;;;22.81;48.31;94387.28;5095495;28;20456;-76
2021/05/05 09:07:41;;;;;;;9.20;5.90;;;;;;;22.93;46.95;94383.94;5095161;28;20811;-76
2021/05/05 09:10:09;;;;;;;6.17;5.20;;;;;;;22.97;47.48;94387.81;5094850;28;20457;-76
2021/05/05 09:12:37;;;;;;;5.97;5.37;;;;;;;23.08;47.52;94387.06;5095567;28;20452;-76
2021/05/05 09:15:08;;;;;;;10.30;5.83;;;;;;;23.08;47.16;94376.38;5060198;28;20521;-76
2021/05/05 09:17:37;;;;;;;10.63;5.90;;;;;;;22.86;47.59;94370.59;5060513;28;20443;-75
2021/05/05 09:20:30;;;;;;;12.13;6.10;;;;;;;22.15;48.83;94374.31;5095203;28;20486;-76
2021/05/05 09:22:58;;;;;;;7.57;6.13;;;;;;;22.03;50.05;94381.34;5096259;28;20447;-75
2021/05/05 09:25:26;;;;;;;8.07;6.20;;;;;;;21.93;50.26;94372.94;5095465;28;20913;-76
2021/05/05 09:28:14;;;;;;;7.00;6.20;;;;;;;21.88;50.33;94370.09;5095493;28;20450;-75
2021/05/05 09:30:42;;;;;;;9.87;6.07;;;;;;;22.23;50.81;94359.88;5095525;28;20452;-75
2021/05/05 09:33:08;;;;;;;6.20;5.60;;;;;;;22.33;48.08;94351.41;5095779;28;20444;-76
2021/05/05 09:35:36;;;;;;;8.97;6.00;;;;;;;22.50;48.87;94350.66;5095435;28;20448;-75
2021/05/05 09:38:06;;;;;;;9.67;6.30;;;;;;;22.23;47.96;94366.03;5095144;28;20958;-76
2021/05/05 09:40:33;;;;;;;10.40;7.53;;;;;;;22.53;47.89;94352.06;5095293;28;20630;-75
2021/05/05 09:43:14;;;;;;;6.43;5.20;;;;;;;22.89;48.24;94346.09;5095076;28;20477;-76
2021/05/05 09:45:40;;;;;;;7.17;5.70;;;;;;;22.53;47.17;94349.41;5095293;28;20446;-76
2021/05/05 09:48:08;;;;;;;6.33;5.67;;;;;;;22.16;47.96;94343.88;5095364;28;20454;-76
2021/05/05 09:50:37;;;;;;;6.33;5.83;;;;;;;21.82;48.39;94341.56;5095186;28;20445;-76
2021/05/05 09:53:14;;;;;;;8.07;5.03;;;;;;;21.58;50.29;94346.59;5095142;28;20454;-76
2021/05/05 09:55:41;;;;;;;8.50;6.00;;;;;;;21.42;49.79;94341.72;5094816;28;20457;-76
2021/05/05 09:58:29;;;;;;;5.90;5.10;;;;;;;21.14;50.82;94343.81;5095031;28;20448;-77
2021/05/05 10:01:22;;;;;;;5.73;5.33;;;;;;;20.94;51.12;94336.66;5094718;28;20471;-76
2021/05/05 10:03:52;;;;;;;9.10;5.77;;;;;;;20.84;51.82;94338.94;5093781;28;20837;-77
2021/05/05 10:06:21;;;;;;;7.63;5.03;;;;;;;21.01;51.37;94329.44;5095246;28;20462;-76
2021/05/05 10:08:50;;;;;;;7.50;5.17;;;;;;;21.09;50.33;94330.25;5094588;28;20447;-76
2021/05/05 10:11:20;;;;;;;5.97;4.70;;;;;;;21.12;50.85;94329.88;5094732;28;20449;-76
2021/05/05 10:13:50;;;;;;;7.83;5.00;;;;;;;21.00;50.97;94321.66;5094881;28;20857;-76
2021/05/05 10:16:17;;;;;;;4.87;4.47;;;;;;;20.71;50.80;94325.59;5094896;28;20447;-76
2021/05/05 10:18:46;;;;;;;6.50;5.73;;;;;;;20.96;50.94;94313.25;5094240;28;20444;-78
2021/05/05 10:21:14;;;;;;;6.90;5.87;;;;;;;21.03;50.63;94322.06;5093412;28;20463;-77
2021/05/05 10:23:42;;;;;;;8.90;5.50;;;;;;;21.02;50.43;94312.41;5093699;28;20447;-76
2021/05/05 10:26:09;;;;;;;6.90;4.80;;;;;;;21.07;48.91;94318.97;5093064;28;20761;-77
2021/05/05 10:28:36;;;;;;;4.47;4.10;;;;;;;21.25;50.57;94316.50;5093131;28;20448;-77
2021/05/05 10:31:03;;;;;;;9.23;5.43;;;;;;;21.55;49.93;94312.31;5092945;28;20440;-77
2021/05/05 10:33:36;;;;;;;6.77;5.80;;;;;;;21.89;50.38;94318.31;5093104;28;20436;-76
2021/05/05 10:36:31;;;;;;;5.77;5.27;;;;;;;22.22;49.74;94310.13;5093180;28;20544;-76
2021/05/05 10:39:00;;;;;;;6.00;4.53;;;;;;;22.51;48.43;94308.69;5092689;28;20884;-77
2021/05/05 10:41:27;;;;;;;6.37;5.07;;;;;;;22.55;46.96;94305.38;5057177;28;20461;-76
2021/05/05 10:43:57;;;;;;;7.87;5.30;;;;;;;22.64;47.31;94302.44;5092839;28;20495;-77
2021/05/05 10:46:29;;;;;;;8.03;5.13;;;;;;;22.64;45.91;94300.56;5093069;28;20525;-77
2021/05/05 10:49:10;;;;;;;6.23;4.87;;;;;;;22.78;46.54;94299.41;5093000;28;20447;-77
2021/05/05 10:51:59;;;;;;;5.50;5.00;;;;;;;22.63;45.65;94295.44;5092863;28;20437;-76
2021/05/05 10:54:51;;;;;;;6.80;5.20;;;;;;;22.76;44.53;94301.50;5093147;28;20793;-77
2021/05/05 10:57:19;;;;;;;5.80;5.30;;;;;;;22.39;44.90;94286.38;5092925;28;20457;-76
2021/05/05 11:00:14;;;;;;;5.40;4.67;;;;;;;22.41;46.55;94286.97;5092602;28;20481;-76
2021/05/05 11:02:50;;;;;;;6.90;5.17;;;;;;;22.44;45.60;94281.19;5093020;28;20450;-77
2021/05/05 11:05:18;;;;;;;9.60;4.90;;;;;;;22.37;45.26;94280.44;5092412;28;20525;-76
2021/05/05 11:07:50;;;;;;;5.90;4.87;;;;;;;22.32;45.86;94272.25;5092476;28;20442;-77
2021/05/05 11:10:53;;;;;;;6.17;4.50;;;;;;;22.32;46.92;94278.41;5093064;28;20457;-75
2021/05/05 11:13:40;;;;;;;5.00;4.60;;;;;;;22.33;46.35;94273.88;5092402;28;20448;-76
2021/05/05 11:16:07;;;;;;;6.60;5.07;;;;;;;22.29;46.17;94275.34;5092203;28;20440;-75
2021/05/05 11:18:45;;;;;;;8.73;4.97;;;;;;;22.24;46.42;94266.09;5092062;28;20930;-75
2021/05/05 11:21:40;;;;;;;5.10;4.70;;;;;;;22.24;46.23;94270.63;5092043;28;20445;-76
2021/05/05 11:24:29;;;;;;;4.80;4.40;;;;;;;22.24;45.45;94271.47;5092417;28;20455;-76
2021/05/05 11:26:56;;;;;;;7.23;4.77;;;;;;;22.33;45.62;94268.53;5092142;28;20858;-75
2021/05/05 11:29:34;;;;;;;6.17;5.00;;;;;;;22.40;46.40;94254.06;5056612;28;20449;-76
2021/05/05 11:32:04;;;;;;;4.90;4.40;;;;;;;22.58;45.95;94256.00;5092389;28;21016;-76
2021/05/05 11:34:36;;;;;;;5.13;4.17;;;;;;;22.80;44.70;94259.88;5092260;28;20477;-75
2021/05/05 11:37:05;;;;;;;4.27;3.87;;;;;;;23.09;45.17;94254.88;5092162;28;20445;-75
2021/05/05 11:39:33;;;;;;;7.97;3.90;;;;;;;23.37;43.71;94260.53;5092195;28;20905;-76